createdAt,value
2022-12-17T00:01:51.802Z,97375.78
2022-12-17T00:04:38.038Z,97383.09
2022-12-17T00:07:23.342Z,97381.34
2022-12-17T00:10:08.766Z,97389.78
2022-12-17T00:12:54.024Z,97400.03
2022-12-17T00:16:02.914Z,97406.38
2022-12-17T00:18:48.203Z,97402.53
2022-12-17T00:21:33.373Z,97409.16
2022-12-17T00:24:18.551Z,97408.06
2022-12-17T00:27:03.825Z,97408.81
2022-12-17T00:29:59.793Z,97412.53
2022-12-17T00:32:44.856Z,97425.38
2022-12-17T00:35:30.205Z,97428.44
2022-12-17T00:38:15.614Z,97436.88
2022-12-17T00:41:00.904Z,97444.53
2022-12-17T00:43:46.216Z,97448.38
2022-12-17T00:46:31.528Z,97448.69
2022-12-17T00:49:16.815Z,97449.69
2022-12-17T00:52:02.129Z,97448.09
2022-12-17T00:54:47.300Z,97441.22
2022-12-17T00:57:32.837Z,97446.53
2022-12-17T01:03:46.572Z,97459.56
2022-12-17T01:06:32.257Z,97460.00
2022-12-17T01:09:17.750Z,97466.78
2022-12-17T01:12:02.977Z,97472.19
2022-12-17T01:14:48.567Z,97483.31
2022-12-17T01:17:33.931Z,97490.16
2022-12-17T01:20:19.282Z,97496.09
2022-12-17T01:23:05.730Z,97495.72
2022-12-17T01:25:51.067Z,97496.34
2022-12-17T01:28:44.126Z,97506.94
2022-12-17T01:31:34.720Z,97497.44
2022-12-17T01:34:20.821Z,97505.28
2022-12-17T01:37:06.443Z,97496.09
2022-12-17T01:39:51.486Z,97508.75
2022-12-17T01:42:36.841Z,97514.41
2022-12-17T01:45:24.317Z,97519.63
2022-12-17T01:48:16.108Z,97521.63
2022-12-17T01:51:04.882Z,97528.28
2022-12-17T01:53:54.282Z,97529.09
2022-12-17T01:56:44.174Z,97532.41
2022-12-17T01:59:31.596Z,97540.06
2022-12-17T02:02:17.414Z,97544.75
2022-12-17T02:05:03.196Z,97555.72
2022-12-17T02:08:09.424Z,97562.94
2022-12-17T02:11:05.284Z,97565.69
2022-12-17T02:13:55.686Z,97566.13
2022-12-17T02:16:46.857Z,97576.13
2022-12-17T02:20:10.669Z,97577.53
2022-12-17T02:23:20.291Z,97580.47
2022-12-17T02:26:15.905Z,97580.47
2022-12-17T02:29:06.988Z,97575.63
2022-12-17T02:31:54.504Z,97572.56
2022-12-17T02:34:40.094Z,97568.00
2022-12-17T02:37:26.158Z,97574.44
2022-12-17T02:40:11.447Z,97577.34
2022-12-17T02:42:57.018Z,97571.97
2022-12-17T02:45:43.478Z,97579.94
2022-12-17T02:48:31.146Z,97572.69
2022-12-17T02:51:18.053Z,97580.47
2022-12-17T02:54:04.776Z,97577.78
2022-12-17T02:56:50.946Z,97573.59
2022-12-17T02:59:36.527Z,97571.97
2022-12-17T03:02:28.608Z,97569.41
2022-12-17T03:05:42.904Z,97575.19
2022-12-17T03:08:19.554Z,97576.81
2022-12-17T03:11:04.870Z,97570.09
2022-12-17T03:13:50.183Z,97565.44
2022-12-17T03:16:38.044Z,97570.63
2022-12-17T03:19:23.496Z,97562.47
2022-12-17T03:22:09.040Z,97554.50
2022-12-17T03:24:54.219Z,97553.69
2022-12-17T03:27:39.452Z,97554.91
2022-12-17T03:30:25.258Z,97544.28
2022-12-17T03:33:10.539Z,97542.31
2022-12-17T03:35:55.910Z,97532.31
2022-12-17T03:38:41.582Z,97527.78
2022-12-17T03:41:26.843Z,97519.09
2022-12-17T03:44:12.242Z,97530.41
2022-12-17T03:46:57.436Z,97528.16
2022-12-17T03:49:42.966Z,97527.72
2022-12-17T03:52:28.298Z,97528.28
2022-12-17T03:55:13.635Z,97526.25
2022-12-17T03:57:58.880Z,97514.91
2022-12-17T04:00:44.063Z,97510.63
2022-12-17T04:03:29.496Z,97511.31
2022-12-17T04:06:14.878Z,97509.72
2022-12-17T04:09:00.204Z,97506.00
2022-12-17T04:11:45.479Z,97513.09
2022-12-17T04:14:30.863Z,97503.78
2022-12-17T04:17:16.347Z,97506.56
2022-12-17T04:20:01.648Z,97502.53
2022-12-17T04:22:46.988Z,97509.56
2022-12-17T04:25:32.387Z,97509.66
2022-12-17T04:28:17.939Z,97512.69
2022-12-17T04:31:03.136Z,97517.75
2022-12-17T04:33:48.328Z,97511.31
2022-12-17T04:36:33.756Z,97515.06
2022-12-17T04:39:18.860Z,97513.88
2022-12-17T04:42:05.783Z,97519.59
2022-12-17T04:44:50.948Z,97524.28
2022-12-17T04:47:36.290Z,97519.75
2022-12-17T04:50:21.812Z,97523.75
2022-12-17T04:53:07.254Z,97532.88
2022-12-17T04:55:52.633Z,97530.22
2022-12-17T04:58:37.984Z,97536.66
2022-12-17T05:01:23.424Z,97552.72
2022-12-17T05:04:08.490Z,97532.47
2022-12-17T05:06:53.777Z,97536.41
2022-12-17T05:09:39.074Z,97533.19
2022-12-17T05:12:24.362Z,97550.75
2022-12-17T05:15:09.752Z,97543.81
2022-12-17T05:17:55.177Z,97545.50
2022-12-17T05:20:40.437Z,97549.66
2022-12-17T05:23:26.880Z,97557.25
2022-12-17T05:26:29.571Z,97557.22
2022-12-17T05:29:16.104Z,97551.38
2022-12-17T05:32:01.547Z,97562.47
2022-12-17T05:34:46.844Z,97561.38
2022-12-17T05:37:32.295Z,97561.16
2022-12-17T05:40:17.595Z,97561.22
2022-12-17T05:43:17.186Z,97559.53
2022-12-17T05:46:04.045Z,97566.34
2022-12-17T05:48:50.612Z,97563.41
2022-12-17T05:51:38.810Z,97568.25
2022-12-17T05:54:25.060Z,97565.72
2022-12-17T05:57:30.573Z,97570.78
2022-12-17T06:00:16.035Z,97573.09
2022-12-17T06:03:01.585Z,97580.66
2022-12-17T06:05:47.170Z,97576.50
2022-12-17T06:08:32.468Z,97573.47
2022-12-17T06:11:18.932Z,97579.06
2022-12-17T06:14:05.722Z,97583.53
2022-12-17T06:16:50.964Z,97597.44
2022-12-17T06:19:36.305Z,97594.59
2022-12-17T06:22:21.685Z,97595.47
2022-12-17T06:25:06.945Z,97601.78
2022-12-17T06:27:52.318Z,97602.34
2022-12-17T06:30:37.760Z,97607.19
2022-12-17T06:33:28.227Z,97610.91
2022-12-17T06:36:21.659Z,97607.41
2022-12-17T06:39:08.034Z,97611.72
2022-12-17T06:41:54.142Z,97611.41
2022-12-17T06:44:45.799Z,97609.09
2022-12-17T06:47:32.195Z,97616.81
2022-12-17T06:50:17.495Z,97627.50
2022-12-17T06:53:02.834Z,97621.03
2022-12-17T06:55:48.178Z,97630.00
2022-12-17T06:58:33.533Z,97634.06
2022-12-17T07:01:19.106Z,97638.34
2022-12-17T07:04:04.208Z,97639.00
2022-12-17T07:06:49.495Z,97647.72
2022-12-17T07:09:34.873Z,97656.09
2022-12-17T07:12:20.263Z,97662.63
2022-12-17T07:15:05.850Z,97674.22
2022-12-17T07:18:04.815Z,97671.75
2022-12-17T07:20:49.888Z,97689.59
2022-12-17T07:23:35.422Z,97689.88
2022-12-17T07:26:20.916Z,97693.03
2022-12-17T07:29:06.223Z,97698.31
2022-12-17T07:31:51.791Z,97694.94
2022-12-17T07:34:37.343Z,97710.69
2022-12-17T07:37:22.673Z,97706.25
2022-12-17T07:40:07.982Z,97707.75
2022-12-17T07:42:53.172Z,97718.16
2022-12-17T07:45:38.653Z,97715.91
2022-12-17T07:48:24.031Z,97719.41
2022-12-17T07:51:09.835Z,97723.75
2022-12-17T07:53:58.648Z,97720.25
2022-12-17T07:56:43.940Z,97728.81
2022-12-17T07:59:29.918Z,97739.44
2022-12-17T08:02:15.407Z,97741.88
2022-12-17T08:05:01.134Z,97762.72
2022-12-17T08:07:46.693Z,97747.59
2022-12-17T08:10:32.038Z,97760.56
2022-12-17T08:13:22.375Z,97766.59
2022-12-17T08:16:07.868Z,97773.81
2022-12-17T08:18:53.372Z,97773.91
2022-12-17T08:21:38.619Z,97773.75
2022-12-17T08:24:24.532Z,97784.63
2022-12-17T08:27:09.826Z,97781.91
2022-12-17T08:29:54.956Z,97788.28
2022-12-17T08:32:40.809Z,97784.91
2022-12-17T08:35:26.282Z,97798.22
2022-12-17T08:38:11.695Z,97791.00
2022-12-17T08:40:56.984Z,97800.13
2022-12-17T08:43:42.271Z,97809.94
2022-12-17T08:46:27.679Z,97815.97
2022-12-17T08:49:13.052Z,97813.25
2022-12-17T08:51:58.524Z,97825.94
2022-12-17T08:54:43.809Z,97823.09
2022-12-17T08:57:32.632Z,97815.97
2022-12-17T09:00:18.549Z,97818.53
2022-12-17T09:03:04.013Z,97815.03
2022-12-17T09:05:49.685Z,97815.06
2022-12-17T09:08:34.923Z,97825.44
2022-12-17T09:11:20.448Z,97830.06
2022-12-17T09:14:05.892Z,97832.25
2022-12-17T09:16:51.188Z,97819.94
2022-12-17T09:19:36.691Z,97839.09
2022-12-17T09:22:22.001Z,97828.97
2022-12-17T09:25:07.354Z,97835.06
2022-12-17T09:27:52.745Z,97829.72
2022-12-17T09:30:38.044Z,97832.72
2022-12-17T09:33:23.450Z,97830.56
2022-12-17T09:36:08.745Z,97830.31
2022-12-17T09:38:54.273Z,97832.34
2022-12-17T09:41:48.812Z,97827.22
2022-12-17T09:44:54.582Z,97843.91
2022-12-17T09:48:01.298Z,97840.06
2022-12-17T09:50:47.019Z,97842.88
2022-12-17T09:53:43.352Z,97838.88
2022-12-17T09:56:30.612Z,97839.78
2022-12-17T09:59:16.052Z,97840.44
2022-12-17T10:02:03.295Z,97834.44
2022-12-17T10:04:55.559Z,97842.75
2022-12-17T10:07:54.169Z,97846.28
2022-12-17T10:10:49.683Z,97840.34
2022-12-17T10:13:41.570Z,97841.94
2022-12-17T10:17:12.395Z,97845.88
2022-12-17T10:20:00.883Z,97856.69
2022-12-17T10:22:46.420Z,97843.34
2022-12-17T10:25:36.250Z,97857.19
2022-12-17T10:28:29.197Z,97842.28
2022-12-17T10:31:15.514Z,97864.25
2022-12-17T10:34:02.008Z,97858.75
2022-12-17T10:36:47.284Z,97864.44
2022-12-17T10:39:36.081Z,97846.69
2022-12-17T10:42:21.719Z,97858.56
2022-12-17T10:45:07.090Z,97848.78
2022-12-17T10:47:52.367Z,97864.88
2022-12-17T10:50:40.694Z,97867.50
2022-12-17T10:53:39.242Z,97870.09
2022-12-17T10:56:25.322Z,97861.59
2022-12-17T10:59:12.658Z,97875.84
2022-12-17T11:02:00.310Z,97857.34
2022-12-17T11:04:51.101Z,97863.69
2022-12-17T11:07:41.209Z,97876.56
2022-12-17T11:10:59.906Z,97877.69
2022-12-17T11:14:01.658Z,97868.66
2022-12-17T11:17:08.275Z,97881.44
2022-12-17T11:20:32.211Z,97886.56
2022-12-17T11:23:19.198Z,97885.16
2022-12-17T11:26:16.733Z,97886.47
2022-12-17T11:29:02.026Z,97882.19
2022-12-17T11:32:14.927Z,97885.00
2022-12-17T11:35:28.617Z,97860.09
2022-12-17T11:38:37.834Z,97869.94
2022-12-17T11:41:51.584Z,97869.22
2022-12-17T11:44:47.723Z,97859.06
2022-12-17T11:47:50.464Z,97854.69
2022-12-17T11:50:45.873Z,97856.84
2022-12-17T11:54:00.409Z,97847.84
2022-12-17T11:56:51.831Z,97875.75
2022-12-17T12:00:00.731Z,97863.63
2022-12-17T12:03:09.946Z,97868.47
2022-12-17T12:05:58.342Z,97864.91
2022-12-17T12:08:47.653Z,97871.69
2022-12-17T12:11:49.197Z,97867.94
2022-12-17T12:15:03.671Z,97859.97
2022-12-17T12:17:58.168Z,97867.09
2022-12-17T12:21:03.734Z,97858.22
2022-12-17T12:24:11.097Z,97866.78
2022-12-17T12:27:42.257Z,97871.00
2022-12-17T12:30:42.812Z,97868.88
2022-12-17T12:33:37.486Z,97864.34
2022-12-17T12:36:27.148Z,97864.84
2022-12-17T12:39:15.019Z,97871.44
2022-12-17T12:42:12.504Z,97868.00
2022-12-17T12:45:19.923Z,97870.09
2022-12-17T12:48:20.558Z,97859.25
2022-12-17T12:51:16.521Z,97870.03
2022-12-17T12:54:01.763Z,97861.03
2022-12-17T12:56:53.620Z,97869.78
2022-12-17T12:59:49.967Z,97855.34
2022-12-17T13:02:46.733Z,97860.88
2022-12-17T13:05:34.595Z,97862.72
2022-12-17T13:08:05.047Z,97866.53
2022-12-17T13:10:33.202Z,97877.63
2022-12-17T13:13:18.498Z,97862.06
2022-12-17T13:15:49.394Z,97864.88
2022-12-17T13:18:23.294Z,97861.47
2022-12-17T13:21:01.340Z,97866.53
2022-12-17T13:23:39.159Z,97845.66
2022-12-17T13:26:24.994Z,97848.44
2022-12-17T13:28:58.121Z,97858.06
2022-12-17T13:31:32.277Z,97851.94
2022-12-17T13:34:13.323Z,97851.34
2022-12-17T13:36:53.076Z,97857.38
2022-12-17T13:39:31.301Z,97857.25
2022-12-17T13:41:58.073Z,97851.59
2022-12-17T13:44:41.342Z,97864.00
2022-12-17T13:47:27.884Z,97863.09
2022-12-17T13:52:44.715Z,97867.06
2022-12-17T13:55:29.256Z,97863.47
2022-12-17T13:57:56.010Z,97871.06
2022-12-17T14:00:25.967Z,97865.72
2022-12-17T14:02:53.673Z,97859.13
2022-12-17T14:05:27.244Z,97861.13
2022-12-17T14:07:54.792Z,97864.56
2022-12-17T14:10:21.765Z,97860.34
2022-12-17T14:12:50.249Z,97872.69
2022-12-17T14:15:28.657Z,97874.44
2022-12-17T14:17:56.968Z,97863.53
2022-12-17T14:20:26.220Z,97869.16
2022-12-17T14:23:00.042Z,97875.75
2022-12-17T14:25:30.689Z,97872.28
2022-12-17T14:27:58.901Z,97881.88
2022-12-17T14:30:51.202Z,97882.13
2022-12-17T14:33:27.935Z,97884.50
2022-12-17T14:36:00.024Z,97886.25
2022-12-17T14:38:48.167Z,97884.72
2022-12-17T14:41:37.884Z,97882.69
2022-12-17T14:44:05.345Z,97886.41
2022-12-17T14:46:33.722Z,97885.91
2022-12-17T14:49:03.832Z,97886.97
2022-12-17T14:51:37.036Z,97891.63
2022-12-17T14:54:19.702Z,97881.66
2022-12-17T14:56:48.217Z,97878.94
2022-12-17T14:59:37.355Z,97891.28
2022-12-17T15:02:26.784Z,97895.81
2022-12-17T15:04:57.821Z,97894.06
2022-12-17T15:07:29.986Z,97894.44
2022-12-17T15:09:57.452Z,97900.72
2022-12-17T15:12:25.573Z,97903.03
2022-12-17T15:14:52.367Z,97907.81
2022-12-17T15:17:19.051Z,97905.47
2022-12-17T15:19:45.958Z,97900.94
2022-12-17T15:22:16.636Z,97904.78
2022-12-17T15:24:44.979Z,97907.03
2022-12-17T15:27:16.516Z,97905.13
2022-12-17T15:29:44.962Z,97912.78
2022-12-17T15:32:22.826Z,97908.94
2022-12-17T15:34:50.612Z,97906.25
2022-12-17T15:37:21.038Z,97915.03
2022-12-17T15:39:51.202Z,97911.50
2022-12-17T15:42:36.513Z,97916.19
2022-12-17T15:45:03.438Z,97924.06
2022-12-17T15:47:31.026Z,97915.16
2022-12-17T15:49:57.812Z,97922.59
2022-12-17T15:52:24.572Z,97930.16
2022-12-17T15:54:51.283Z,97935.06
2022-12-17T15:57:18.853Z,97931.97
2022-12-17T15:59:45.734Z,97931.97
2022-12-17T16:02:12.986Z,97927.38
2022-12-17T16:04:41.007Z,97942.94
2022-12-17T16:07:08.054Z,97937.56
2022-12-17T16:09:34.814Z,97938.69
2022-12-17T16:12:01.440Z,97944.84
2022-12-17T16:14:28.178Z,97947.00
2022-12-17T16:16:54.874Z,97945.47
2022-12-17T16:19:21.542Z,97953.13
2022-12-17T16:21:48.261Z,97950.69
2022-12-17T16:24:15.252Z,97954.22
2022-12-17T16:26:42.233Z,97949.06
2022-12-17T16:29:08.910Z,97952.44
2022-12-17T16:31:35.860Z,97950.94
2022-12-17T16:34:02.668Z,97948.66
2022-12-17T16:36:29.355Z,97949.25
2022-12-17T16:38:56.031Z,97950.66
2022-12-17T16:41:22.935Z,97952.56
2022-12-17T16:43:49.875Z,97959.50
2022-12-17T16:46:38.796Z,97953.25
2022-12-17T16:49:06.948Z,97954.56
2022-12-17T16:51:33.923Z,97957.72
2022-12-17T16:54:05.101Z,97966.78
2022-12-17T16:56:35.142Z,97958.84
2022-12-17T16:59:08.321Z,97957.41
2022-12-17T17:01:36.293Z,97953.69
2022-12-17T17:04:05.261Z,97966.03
2022-12-17T17:06:34.023Z,97966.41
2022-12-17T17:09:04.346Z,97974.25
2022-12-17T17:11:31.720Z,97976.50
2022-12-17T17:13:58.487Z,97978.84
2022-12-17T17:16:25.786Z,97977.47
2022-12-17T17:18:53.611Z,97979.03
2022-12-17T17:21:20.227Z,97973.94
2022-12-17T17:23:48.323Z,97977.75
2022-12-17T17:26:15.632Z,97984.22
2022-12-17T17:28:42.520Z,97976.31
2022-12-17T17:31:11.869Z,97984.06
2022-12-17T17:33:43.660Z,97986.41
2022-12-17T17:36:14.570Z,97984.53
2022-12-17T17:38:41.778Z,97987.41
2022-12-17T17:41:11.598Z,97981.53
2022-12-17T17:43:38.295Z,97982.34
2022-12-17T17:46:16.246Z,97983.47
2022-12-17T17:48:45.553Z,97982.06
2022-12-17T17:51:15.106Z,97983.72
2022-12-17T17:53:42.600Z,97982.66
2022-12-17T17:56:16.197Z,97981.53
2022-12-17T17:58:45.535Z,97988.03
2022-12-17T18:01:15.748Z,97981.91
2022-12-17T18:03:42.998Z,97987.25
2022-12-17T18:06:11.767Z,97985.81
2022-12-17T18:08:38.796Z,98001.09
2022-12-17T18:11:08.632Z,97993.84
2022-12-17T18:13:55.042Z,97986.63
2022-12-17T18:16:32.795Z,97981.88
2022-12-17T18:19:02.300Z,97984.72
2022-12-17T18:21:30.716Z,97985.63
2022-12-17T18:24:01.694Z,97996.84
2022-12-17T18:26:32.942Z,98004.25
2022-12-17T18:29:03.150Z,98006.03
2022-12-17T18:31:30.949Z,98002.84
2022-12-17T18:34:01.028Z,97991.94
2022-12-17T18:36:31.674Z,97994.44
2022-12-17T18:39:06.118Z,97991.78
2022-12-17T18:41:51.717Z,97995.56
2022-12-17T18:44:19.703Z,97991.78
2022-12-17T18:46:47.177Z,97996.00
2022-12-17T18:49:15.705Z,97991.75
2022-12-17T18:51:45.186Z,97991.31
2022-12-17T18:54:18.002Z,97990.19
2022-12-17T18:57:01.683Z,97992.69
2022-12-17T18:59:30.485Z,97997.72
2022-12-17T19:01:58.148Z,97994.38
2022-12-17T19:04:25.790Z,97993.13
2022-12-17T19:06:53.804Z,97987.09
2022-12-17T19:09:24.805Z,97994.56
2022-12-17T19:11:52.673Z,97990.56
2022-12-17T19:14:22.142Z,97984.06
2022-12-17T19:16:50.362Z,97987.03
2022-12-17T19:19:17.509Z,97994.63
2022-12-17T19:21:44.415Z,97989.03
2022-12-17T19:24:16.420Z,97982.09
2022-12-17T19:26:44.006Z,97983.53
2022-12-17T19:29:12.484Z,97981.25
2022-12-17T19:31:39.385Z,97974.50
2022-12-17T19:34:09.729Z,97976.25
2022-12-17T19:36:38.145Z,97982.72
2022-12-17T19:39:07.704Z,97984.56
2022-12-17T19:41:35.180Z,97989.97
2022-12-17T19:44:04.858Z,97991.38
2022-12-17T19:46:33.434Z,97983.78
2022-12-17T19:49:00.476Z,97988.31
2022-12-17T19:51:29.532Z,97991.03
2022-12-17T19:53:56.677Z,97996.38
2022-12-17T19:56:29.300Z,97997.63
2022-12-17T19:59:02.199Z,97982.00
2022-12-17T20:01:31.929Z,97993.50
2022-12-17T20:03:59.338Z,98002.03
2022-12-17T20:06:28.729Z,98007.41
2022-12-17T20:08:55.802Z,98002.03
2022-12-17T20:11:35.063Z,97999.78
2022-12-17T20:14:11.314Z,97993.13
2022-12-17T20:16:47.886Z,97996.31
2022-12-17T20:19:21.545Z,98002.03
2022-12-17T20:21:49.664Z,98006.13
2022-12-17T20:24:17.374Z,98009.84
2022-12-17T20:26:45.533Z,98011.31
2022-12-17T20:29:12.656Z,98015.13
2022-12-17T20:31:39.531Z,98016.41
2022-12-17T20:34:08.610Z,98012.31
2022-12-17T20:36:36.033Z,98006.91
2022-12-17T20:39:03.609Z,98013.25
2022-12-17T20:41:31.666Z,98018.75
2022-12-17T20:43:58.871Z,98018.22
2022-12-17T20:46:26.075Z,98010.56
2022-12-17T20:48:53.725Z,98006.25
2022-12-17T20:51:27.051Z,98005.84
2022-12-17T20:53:55.826Z,98009.78
2022-12-17T20:56:34.918Z,98013.25
2022-12-17T20:59:05.383Z,98030.28
2022-12-17T21:01:35.015Z,98029.31
2022-12-17T21:04:03.108Z,98029.41
2022-12-17T21:06:34.520Z,98030.28
2022-12-17T21:09:02.359Z,98041.53
2022-12-17T21:11:31.461Z,98030.28
2022-12-17T21:13:59.311Z,98031.06
2022-12-17T21:16:29.905Z,98026.00
2022-12-17T21:18:59.209Z,98043.28
2022-12-17T21:21:28.963Z,98047.88
2022-12-17T21:23:56.728Z,98035.84
2022-12-17T21:26:27.898Z,98049.28
2022-12-17T21:28:56.533Z,98041.88
2022-12-17T21:31:26.003Z,98051.97
2022-12-17T21:33:57.228Z,98048.69
2022-12-17T21:36:25.682Z,98050.59
2022-12-17T21:38:53.069Z,98056.19
2022-12-17T21:41:23.402Z,98056.97
2022-12-17T21:43:55.614Z,98046.53
2022-12-17T21:46:23.808Z,98040.22
2022-12-17T21:48:52.015Z,98035.16
2022-12-17T21:51:18.937Z,98045.13
2022-12-17T21:53:45.869Z,98052.63
2022-12-17T21:56:15.710Z,98049.44
2022-12-17T21:58:44.167Z,98055.94
2022-12-17T22:01:17.059Z,98066.66
2022-12-17T22:03:53.144Z,98056.38
2022-12-17T22:06:25.001Z,98061.31
2022-12-17T22:08:58.032Z,98059.41
2022-12-17T22:11:28.337Z,98062.53
2022-12-17T22:14:18.865Z,98055.94
2022-12-17T22:16:49.635Z,98062.41
2022-12-17T22:19:21.975Z,98066.03
2022-12-17T22:21:50.607Z,98068.59
2022-12-17T22:24:21.360Z,98069.53
2022-12-17T22:26:48.998Z,98070.38
2022-12-17T22:29:34.527Z,98071.00
2022-12-17T22:32:19.933Z,98077.44
2022-12-17T22:36:13.611Z,98082.06
2022-12-17T22:39:54.926Z,98077.63
2022-12-17T22:44:29.615Z,98075.88
2022-12-17T22:44:37.199Z,98074.59
2022-12-17T22:46:19.116Z,98080.31
2022-12-17T22:48:46.164Z,98084.56
2022-12-17T22:51:22.074Z,98092.13
2022-12-17T22:54:05.000Z,98095.13
2022-12-17T22:56:56.762Z,98095.44
2022-12-17T22:59:20.925Z,98104.47
2022-12-17T23:01:47.730Z,98103.34
2022-12-17T23:04:16.079Z,98104.47
2022-12-17T23:06:45.612Z,98097.19
2022-12-17T23:09:19.450Z,98099.41
2022-12-17T23:11:48.218Z,98111.41
2022-12-17T23:14:15.360Z,98111.44
2022-12-17T23:16:43.429Z,98114.56
2022-12-17T23:19:10.517Z,98113.63
2022-12-17T23:21:37.902Z,98110.09
2022-12-17T23:24:05.749Z,98112.66
2022-12-17T23:26:35.389Z,98110.13
2022-12-17T23:29:05.668Z,98101.16
2022-12-17T23:31:36.600Z,98107.28
2022-12-17T23:34:04.714Z,98110.75
2022-12-17T23:36:31.589Z,98103.19
2022-12-17T23:38:59.383Z,98105.25
2022-12-17T23:41:30.769Z,98106.69
2022-12-17T23:43:58.464Z,98111.56
2022-12-17T23:46:26.798Z,98120.25
2022-12-17T23:48:53.799Z,98122.13
2022-12-17T23:51:22.155Z,98121.81
2022-12-17T23:53:49.303Z,98122.44
2022-12-17T23:56:20.386Z,98122.00
2022-12-17T23:58:48.196Z,98116.94
